Flight Track Log - Related Links

Times and Time Zones

All times are in EDT time to prevent confusion due to time zone crossing. See the DAL1562 flight status page for this flight to view local times or setup timezone preferences in your user account.

Time Position Orientation Groundspeed Altitude Reporting Facility
EDT Latitude Longitude Course Direction KTS MPH feet Rate Location/Type
Wed 16:48:53 39.8592 -75.2850 270° West 191 220 1,200  Level FAA TRACON SMA TRACON (SMA)
Wed 16:49:13 39.8539 -75.3106 255° West 201 231 1,700 1,650 Climbing FAA TRACON SMA TRACON (SMA)
Wed 16:49:33 39.8483 -75.3367 255° West 243 280 2,300 2,400 Climbing FAA TRACON SMA TRACON (SMA)
Wed 16:49:53 39.8431 -75.3622 255° West 256 295 3,300 3,231 Climbing FAA TRACON SMA TRACON (SMA)
Wed 16:50:12 39.8422 -75.3994 268° West 257 296 4,400 3,538 Climbing FAA TRACON SMA TRACON (SMA)
Wed 16:50:32 39.8458 -75.4261 280° West 264 304 5,600 3,750 Climbing FAA TRACON SMA TRACON (SMA)
Wed 16:50:52 39.8475 -75.4564 274° West 256 295 6,900 3,385 Climbing FAA TRACON SMA TRACON (SMA)
Wed 16:51:00 39.9108 -75.6434 288° West  Level FlightAware Approximate
Wed 16:51:11 39.8492 -75.4850 274° West 259 298 7,800  Level FAA TRACON SMA TRACON (SMA)
Wed 16:51:32 39.8514 -75.5217 275° West 264 304 9,000 2,927 Climbing FAA TRACON SMA TRACON (SMA)
Wed 16:51:52 39.8544 -75.5511 278° West 265 305 9,800 1,950 Climbing FAA TRACON SMA TRACON (SMA)
Wed 16:52:00 39.9000 -75.7803 270° West  Level FlightAware Approximate
Wed 16:52:12 39.8564 -75.5819 275° West 275 316 10,300  Level FAA TRACON SMA TRACON (SMA)
Wed 16:52:32 39.8597 -75.6247 276° West 311 358 10,900 1,538 Climbing FAA TRACON SMA TRACON (SMA)
Wed 16:52:51 39.8631 -75.6608 277° West 331 381 11,300 1,231 Climbing FAA TRACON SMA TRACON (SMA)
Wed 16:53:00 39.9000 -75.9208 270° West  Level FlightAware Approximate
Wed 16:53:11 39.8664 -75.6983 277° West 341 392 11,700  Level FAA TRACON SMA TRACON (SMA)
Wed 16:53:31 39.8703 -75.7464 276° West 353 406 12,300 2,100 Climbing FAA TRACON SMA TRACON (SMA)
Wed 16:53:51 39.8747 -75.7883 278° West 364 419 13,100 1,950 Climbing FAA TRACON SMA TRACON (SMA)
Wed 16:54:00 39.9000 -76.0612 270° West  Level FlightAware Approximate
Wed 16:54:11 39.8783 -75.8236 278° West 367 422 13,600  Level FAA TRACON SMA TRACON (SMA)
Wed 16:54:31 39.8822 -75.8814 275° West 374 430 14,400 1,950 Climbing FAA TRACON SMA TRACON (SMA)
Wed 16:54:51 39.8858 -75.9242 276° West 382 440 14,900 1,050 Climbing FAA TRACON SMA TRACON (SMA)
Wed 16:55:11 39.8894 -75.9758 275° West 385 443 15,100 300 Climbing FAA TRACON SMA TRACON (SMA)
Wed 16:55:31 39.8936 -76.0208 277° West 388 447 15,100 750 Level FAA TRACON SMA TRACON (SMA)
Wed 16:55:51 39.8967 -76.0639 275° West 389 448 15,600 1,756 Climbing FAA TRACON SMA TRACON (SMA)
Wed 16:56:12 39.9019 -76.1175 277° West 390 449 16,300 1,902 Climbing FAA TRACON SMA TRACON (SMA)
Wed 16:56:32 39.9053 -76.1619 276° West 393 452 16,900 1,385 Climbing FAA TRACON SMA TRACON (SMA)
Wed 16:56:51 39.9097 -76.2064 277° West 400 460 17,200 1,538 Climbing FAA TRACON SMA TRACON (SMA)
Wed 16:57:11 39.9150 -76.2611 277° West 408 470 17,900 1,171 Climbing FAA TRACON SMA TRACON (SMA)
Wed 16:57:32 39.9189 -76.3094 276° West 413 475 18,000 1,100 Climbing FAA TRACON SMA TRACON (SMA)
Wed 16:58:11 39.9267 -76.4069 276° West 419 482 19,000 1,560 Climbing New York Center
Wed 16:59:12 39.9389 -76.5433 277° West 425 489 20,600 1,488 Climbing New York Center
Wed 17:00:12 39.9503 -76.6931 276° West 430 495 22,000 1,462 Climbing New York Center
Wed 17:01:11 39.9661 -76.8706 277° West 441 507 23,500 1,563 Climbing New York Center
Wed 17:02:11 39.9811 -77.0264 277° West 441 507 25,100 1,714 Climbing New York Center
Wed 17:03:10 39.9936 -77.1794 276° West 441 507 26,900 1,488 Climbing New York Center
Wed 17:04:12 40.0058 -77.3350 276° West 441 507 28,100 1,081 Climbing New York Center
Wed 17:06:02 40.0303 -77.6006 277° West 419 482 30,000 667 Climbing Cleveland Center
Wed 17:07:03 40.0403 -77.7492 275° West 419 482 30,000  Level Cleveland Center
Wed 17:08:03 40.0522 -77.8978 276° West 419 482 30,000  Level Cleveland Center
Wed 17:09:02 40.0619 -78.0467 275° West 419 482 30,000  Level Cleveland Center
Wed 17:10:02 40.0756 -78.1956 277° West 419 482 30,000  Level Cleveland Center
Wed 17:11:03 40.0869 -78.3442 276° West 419 482 30,000  Level Cleveland Center
Wed 17:12:02 40.1189 -78.4872 286° West 419 482 30,000  Level Cleveland Center
Wed 17:13:02 40.1547 -78.6300 288° West 419 482 30,000  Level Cleveland Center
Wed 17:14:02 40.1928 -78.7867 288° West 414 476 30,000  Level Cleveland Center
Wed 17:15:02 40.2303 -78.9297 289° West 414 476 30,000  Level Cleveland Center
Wed 17:16:02 40.2656 -79.0731 288° West 419 482 30,000  Level Cleveland Center
Wed 17:17:02 40.3028 -79.2136 289° West 419 482 30,000  Level Cleveland Center
Wed 17:18:03 40.3400 -79.3572 289° West 419 482 30,000  Level Cleveland Center
Wed 17:19:02 40.3767 -79.4956 289° West 419 482 30,000  Level Cleveland Center
Wed 17:20:02 40.4094 -79.6397 287° West 419 482 30,000  Level Cleveland Center
Wed 17:21:02 40.4458 -79.7811 289° West 419 482 30,000  Level Cleveland Center
Wed 17:22:02 40.4800 -79.9225 288° West 419 482 30,000  Level Cleveland Center
Wed 17:23:03 40.5100 -80.0697 285° West 419 482 30,000  Level Cleveland Center
Wed 17:24:02 40.5461 -80.2142 288° West 419 482 30,000  Level Cleveland Center
Wed 17:25:02 40.5756 -80.3261 289° West 419 482 30,000  Level Cleveland Center
Wed 17:26:03 40.6153 -80.4956 287° West 413 475 30,000  Level Cleveland Center
Wed 17:27:02 40.6425 -80.6242 286° West 394 453 30,000  Level Cleveland Center
Wed 17:28:02 40.6758 -80.7392 291° West 381 438 30,000  Level Cleveland Center
Wed 17:29:03 40.7319 -80.8572 302° West 376 433 30,000  Level Cleveland Center
Wed 17:30:02 40.7897 -80.9725 304° West 371 427 30,000  Level Cleveland Center
Wed 17:31:02 40.8436 -81.0908 301° West 376 433 30,000  Level Cleveland Center
Wed 17:32:02 40.9014 -81.2067 303° West 376 433 30,000  Level Cleveland Center
Wed 17:33:02 40.9569 -81.3256 302° West 376 433 30,000 -450 Level Cleveland Center
Wed 17:34:02 41.0125 -81.4417 302° West 381 438 29,100 -1,000 Descending Cleveland Center
Wed 17:35:02 41.0678 -81.5553 303° West 375 432 28,000 -1,050 Descending Cleveland Center
Wed 17:36:02 41.1250 -81.6775 302° West 369 425 27,000 -1,000 Descending Cleveland Center
Wed 17:37:02 41.1742 -81.7747 304° West 364 419 26,000 -500 Descending Cleveland Center
Wed 17:38:02 41.2289 -81.9000 300° West 354 407 26,000  Level Cleveland Center
Wed 17:39:02 41.2781 -81.9922 305° West 349 402 26,000  Level Cleveland Center
Wed 17:40:02 41.3308 -82.0983 304° West 344 396 26,000 -300 Level Cleveland Center
Wed 17:41:02 41.3772 -82.2158 298° West 349 402 25,400 -550 Descending Cleveland Center
Wed 17:42:02 41.3567 -82.3314 257° West 328 377 24,900 -500 Descending Cleveland Center
Wed 17:43:02 41.2664 -82.3758 200° South 302 348 24,400 -450 Descending Cleveland Center
Wed 17:44:02 41.1842 -82.2883 141° Southeast 289 333 24,000 -200 Descending Cleveland Center
Wed 17:45:02 41.1256 -82.1569 121° Southeast 361 415 24,000  Level Cleveland Center
Wed 17:46:02 41.0650 -82.0289 122° Southeast 392 451 24,000  Level Cleveland Center
Wed 17:47:03 41.0081 -81.8983 120° Southeast 411 473 24,000  Level Cleveland Center
Wed 17:48:02 41.0511 -81.7644 67° East 359 413 24,000  Level Cleveland Center
Wed 17:49:02 41.1533 -81.7550 North 292 336 24,000  Level Cleveland Center
Wed 17:50:02 41.2150 -81.8528 310° West 234 269 24,000  Level Cleveland Center
Wed 17:51:02 41.2639 -81.9589 302° West 279 321 24,000  Level Cleveland Center
Wed 17:52:02 41.3144 -82.0678 302° West 315 362 24,000 -450 Level Cleveland Center
Wed 17:53:02 41.3736 -82.1742 307° West 329 379 23,100 -1,200 Descending Cleveland Center
Wed 17:54:02 41.4181 -82.2722 301° West 330 380 21,600 -1,700 Descending Cleveland Center
Wed 17:55:02 41.4394 -82.3781 285° West 306 352 19,700 -1,800 Descending Cleveland Center
Wed 17:56:02 41.4775 -82.4622 301° West 296 341 18,000 -1,769 Descending Cleveland Center
Wed 17:56:20 41.5042 -82.4961 316° Northwest 305 351 17,400 -1,600 Descending Cleveland Center
Wed 17:57:02 41.5386 -82.5444 314° West 303 349 16,400 -1,726 Descending Cleveland Center
Wed 17:57:33 41.5775 -82.5956 315° West 311 358 15,300 -1,600 Descending Cleveland Center
Wed 17:58:02 41.6019 -82.6214 322° Northwest 303 349 14,800 -1,869 Descending Cleveland Center
Wed 17:58:34 41.6408 -82.6725 316° Northwest 301 346 13,400 -2,066 Descending Cleveland Center
Wed 17:59:03 41.6650 -82.7067 313° West 303 349 12,700 -1,377 Descending Cleveland Center
Wed 17:59:35 41.6997 -82.7497 317° Northwest 297 342 12,000 -712 Descending Cleveland Center
Wed 18:00:02 41.7261 -82.7839 316° Northwest 298 343 12,000 -91 Level Cleveland Center
Wed 18:00:41 41.7689 -82.8356 318° Northwest 299 344 11,900 -800 Descending Cleveland Center
Wed 18:01:02 41.7875 -82.8528 325° Northwest 293 337 11,200 -1,967 Descending Cleveland Center
Wed 18:01:42 41.8300 -82.9100 315° West 298 343 9,900 -1,800 Descending Cleveland Center
Wed 18:02:02 41.8400 -82.9383 295° West 293 337 9,400 -1,636 Descending Cleveland Center
Wed 18:02:37 41.8553 -82.9975 289° West 283 326 8,400 -1,600 Descending Cleveland Center
Wed 18:03:02 41.8650 -83.0339 290° West 283 326 7,800 -1,475 Descending Cleveland Center
Wed 18:03:38 41.8825 -83.0933 292° West 273 314 6,900 -1,600 Descending Cleveland Center
Wed 18:04:02 41.8942 -83.1300 293° West 277 319 6,200 -806 Descending Cleveland Center
Wed 18:04:45 41.9136 -83.1950 292° West 274 315 6,000 -200 Descending Cleveland Center
Wed 18:05:02 41.9211 -83.2231 290° West 272 313 6,000 -1,082 Level Cleveland Center
Wed 18:05:46 41.9425 -83.2939 292° West 276 318 4,900 -1,800 Descending Cleveland Center
Wed 18:06:02 41.9481 -83.3192 286° West 278 320 4,200 -1,727 Descending Cleveland Center
Wed 18:06:52 41.9986 -83.3883 315° West 288 331 3,000 -1,440 Descending Cleveland Center

Login

Don't have an account? Register now (free) for customized features, flight alerts, and more!